createdAt,value
2023-04-22T00:01:43.726Z,8.00
2023-04-22T00:08:43.374Z,8.10
2023-04-22T00:11:11.124Z,8.10
2023-04-22T00:13:38.112Z,8.00
2023-04-22T00:16:07.108Z,8.00
2023-04-22T00:18:37.479Z,8.00
2023-04-22T00:21:06.066Z,8.00
2023-04-22T00:23:32.996Z,8.00
2023-04-22T00:26:01.405Z,8.00
2023-04-22T00:28:28.419Z,8.60
2023-04-22T00:30:55.399Z,8.10
2023-04-22T00:33:23.157Z,8.10
2023-04-22T00:35:50.722Z,8.10
2023-04-22T00:38:17.663Z,8.30
2023-04-22T00:40:44.524Z,8.10
2023-04-22T00:43:14.259Z,8.20
2023-04-22T00:45:42.542Z,8.20
2023-04-22T00:48:11.909Z,8.20
2023-04-22T00:50:38.952Z,10.50
2023-04-22T00:53:05.892Z,9.20
2023-04-22T00:55:33.382Z,8.30
2023-04-22T00:58:03.481Z,8.30
2023-04-22T01:00:30.456Z,8.30
2023-04-22T01:02:58.117Z,8.40
2023-04-22T01:05:25.933Z,7.50
2023-04-22T01:07:52.885Z,8.50
2023-04-22T01:10:20.402Z,8.50
2023-04-22T01:12:47.359Z,8.80
2023-04-22T01:15:14.562Z,8.60
2023-04-22T01:17:41.753Z,8.60
2023-04-22T01:20:12.134Z,10.80
2023-04-22T01:22:45.576Z,8.70
2023-04-22T01:25:12.990Z,9.20
2023-04-22T01:27:40.983Z,8.80
2023-04-22T01:30:10.197Z,11.00
2023-04-22T01:32:40.929Z,8.80
2023-04-22T01:35:09.693Z,8.80
2023-04-22T01:37:37.256Z,8.80
2023-04-22T01:40:05.904Z,8.80
2023-04-22T01:42:33.430Z,8.80
2023-04-22T01:45:00.604Z,8.90
2023-04-22T01:47:27.675Z,8.90
2023-04-22T01:49:54.643Z,8.90
2023-04-22T01:52:21.916Z,8.90
2023-04-22T01:54:49.087Z,8.90
2023-04-22T01:57:16.504Z,8.90
2023-04-22T01:59:43.898Z,8.90
2023-04-22T02:02:10.938Z,8.90
2023-04-22T02:04:38.134Z,8.90
2023-04-22T02:07:05.912Z,8.90
2023-04-22T02:09:36.101Z,9.00
2023-04-22T02:12:03.078Z,9.00
2023-04-22T02:14:30.013Z,11.20
2023-04-22T02:17:03.259Z,9.70
2023-04-22T02:19:30.555Z,10.90
2023-04-22T02:21:58.273Z,9.10
2023-04-22T02:24:25.474Z,9.10
2023-04-22T02:26:52.415Z,11.50
2023-04-22T02:29:19.813Z,9.20
2023-04-22T02:31:47.669Z,10.60
2023-04-22T02:34:15.127Z,9.20
2023-04-22T02:36:42.016Z,9.40
2023-04-22T02:39:08.992Z,9.20
2023-04-22T02:41:36.032Z,9.20
2023-04-22T02:44:03.740Z,9.20
2023-04-22T02:46:31.161Z,9.90
2023-04-22T02:48:58.203Z,9.50
2023-04-22T02:51:25.140Z,9.20
2023-04-22T02:53:52.919Z,9.20
2023-04-22T02:56:21.309Z,9.40
2023-04-22T02:58:48.393Z,9.20
2023-04-22T03:01:15.425Z,9.20
2023-04-22T03:03:44.216Z,9.20
2023-04-22T03:06:16.042Z,9.20
2023-04-22T03:08:43.081Z,9.20
2023-04-22T03:11:10.796Z,9.50
2023-04-22T03:13:37.784Z,9.20
2023-04-22T03:16:04.921Z,9.10
2023-04-22T03:18:33.027Z,9.10
2023-04-22T03:21:00.958Z,9.10
2023-04-22T03:23:28.074Z,9.10
2023-04-22T03:25:55.912Z,9.10
2023-04-22T03:28:23.259Z,9.10
2023-04-22T03:30:50.914Z,9.10
2023-04-22T03:33:18.630Z,11.50
2023-04-22T03:36:00.542Z,10.30
2023-04-22T03:38:27.604Z,9.10
2023-04-22T03:40:55.829Z,9.10
2023-04-22T03:43:38.878Z,9.10
2023-04-22T03:46:08.700Z,9.10
2023-04-22T03:48:40.061Z,8.80
2023-04-22T03:51:12.901Z,10.10
2023-04-22T03:53:41.349Z,9.10
2023-04-22T03:56:11.190Z,9.10
2023-04-22T03:58:43.626Z,9.10
2023-04-22T04:01:11.491Z,9.10
2023-04-22T04:03:39.875Z,9.10
2023-04-22T04:06:09.482Z,9.10
2023-04-22T04:08:37.352Z,9.10
2023-04-22T04:11:04.850Z,9.10
2023-04-22T04:13:32.185Z,9.10
2023-04-22T04:16:31.795Z,9.90
2023-04-22T04:19:08.049Z,9.10
2023-04-22T04:21:37.668Z,9.10
2023-04-22T04:24:07.231Z,10.50
2023-04-22T04:26:39.420Z,9.20
2023-04-22T04:29:14.671Z,9.20
2023-04-22T04:31:46.741Z,9.20
2023-04-22T04:34:15.231Z,9.20
2023-04-22T04:36:42.190Z,10.00
2023-04-22T04:39:17.526Z,10.80
2023-04-22T04:41:45.211Z,9.30
2023-04-22T04:44:12.426Z,9.30
2023-04-22T04:46:40.641Z,9.30
2023-04-22T04:49:12.865Z,9.30
2023-04-22T04:51:56.073Z,9.30
2023-04-22T04:54:23.595Z,9.40
2023-04-22T04:56:50.562Z,9.40
2023-04-22T04:59:17.625Z,9.60
2023-04-22T05:01:45.725Z,10.30
2023-04-22T05:04:13.708Z,10.00
2023-04-22T05:06:43.336Z,9.50
2023-04-22T05:09:10.489Z,11.90
2023-04-22T05:11:37.739Z,10.50
2023-04-22T05:14:11.841Z,9.50
2023-04-22T05:16:41.897Z,9.60
2023-04-22T05:19:10.065Z,9.50
2023-04-22T05:21:37.539Z,10.90
2023-04-22T05:24:04.786Z,10.10
2023-04-22T05:26:32.399Z,9.60
2023-04-22T05:29:00.821Z,9.70
2023-04-22T05:31:29.106Z,9.70
2023-04-22T05:33:56.977Z,9.70
2023-04-22T05:36:24.361Z,10.90
2023-04-22T05:38:52.086Z,11.10
2023-04-22T05:41:19.521Z,11.70
2023-04-22T05:43:48.776Z,9.90
2023-04-22T05:46:18.290Z,10.00
2023-04-22T05:48:46.812Z,11.00
2023-04-22T05:51:40.203Z,10.20
2023-04-22T05:54:07.253Z,10.30
2023-04-22T05:56:34.599Z,10.30
2023-04-22T05:59:01.814Z,10.40
2023-04-22T06:01:28.743Z,11.80
2023-04-22T06:04:02.906Z,11.80
2023-04-22T06:06:32.134Z,10.70
2023-04-22T06:08:59.061Z,11.10
2023-04-22T06:11:26.068Z,11.90
2023-04-22T06:13:53.054Z,11.90
2023-04-22T06:16:20.319Z,13.50
2023-04-22T06:18:48.552Z,12.40
2023-04-22T06:21:15.653Z,11.40
2023-04-22T06:23:43.489Z,10.40
2023-04-22T06:26:10.926Z,13.10
2023-04-22T06:28:38.310Z,13.40
2023-04-22T06:31:11.140Z,13.20
2023-04-22T06:33:38.693Z,13.30
2023-04-22T06:36:06.776Z,13.60
2023-04-22T06:38:35.549Z,12.40
2023-04-22T06:41:35.050Z,13.30
2023-04-22T06:44:16.770Z,15.30
2023-04-22T06:47:09.867Z,14.60
2023-04-22T06:49:51.617Z,15.00
2023-04-22T06:52:25.158Z,13.60
2023-04-22T06:54:55.184Z,13.80
2023-04-22T06:57:22.311Z,14.70
2023-04-22T06:59:49.248Z,14.20
2023-04-22T07:02:17.089Z,14.40
2023-04-22T07:04:44.652Z,15.90
2023-04-22T07:07:11.909Z,15.00
2023-04-22T07:09:39.736Z,15.00
2023-04-22T07:12:07.078Z,15.30
2023-04-22T07:14:34.069Z,15.50
2023-04-22T07:17:01.274Z,15.90
2023-04-22T07:19:28.272Z,17.20
2023-04-22T07:21:55.236Z,17.70
2023-04-22T07:24:22.161Z,17.70
2023-04-22T07:26:49.127Z,17.00
2023-04-22T07:29:16.214Z,17.00
2023-04-22T07:31:43.245Z,17.10
2023-04-22T07:34:10.817Z,17.20
2023-04-22T07:36:38.726Z,17.30
2023-04-22T07:39:05.713Z,17.30
2023-04-22T07:41:33.566Z,17.40
2023-04-22T07:44:00.656Z,17.30
2023-04-22T07:46:27.658Z,18.20
2023-04-22T07:48:54.608Z,17.40
2023-04-22T07:51:21.807Z,17.40
2023-04-22T07:53:48.642Z,19.70
2023-04-22T07:56:15.577Z,17.60
2023-04-22T07:58:42.549Z,17.80
2023-04-22T08:01:09.558Z,17.90
2023-04-22T08:03:36.666Z,18.00
2023-04-22T08:06:04.063Z,18.10
2023-04-22T08:08:30.936Z,18.30
2023-04-22T08:10:58.030Z,18.50
2023-04-22T08:13:25.453Z,18.60
2023-04-22T08:15:52.438Z,18.80
2023-04-22T08:18:19.494Z,19.00
2023-04-22T08:20:47.911Z,19.80
2023-04-22T08:23:14.779Z,19.50
2023-04-22T08:25:42.124Z,19.70
2023-04-22T08:28:09.241Z,20.00
2023-04-22T08:30:36.342Z,20.30
2023-04-22T08:33:03.442Z,20.50
2023-04-22T08:35:30.894Z,21.00
2023-04-22T08:37:57.969Z,20.90
2023-04-22T08:40:24.959Z,21.10
2023-04-22T08:42:52.904Z,21.30
2023-04-22T08:45:21.357Z,21.50
2023-04-22T08:47:49.928Z,21.60
2023-04-22T08:50:16.916Z,21.70
2023-04-22T08:52:44.050Z,21.80
2023-04-22T08:55:11.049Z,22.10
2023-04-22T08:57:41.158Z,22.00
2023-04-22T09:00:09.541Z,22.00
2023-04-22T09:02:41.965Z,22.00
2023-04-22T09:05:11.229Z,22.10
2023-04-22T09:07:40.089Z,22.30
2023-04-22T09:10:08.441Z,22.40
2023-04-22T09:12:35.484Z,22.60
2023-04-22T09:15:03.692Z,23.90
2023-04-22T09:17:33.428Z,23.00
2023-04-22T09:20:04.909Z,23.10
2023-04-22T09:22:47.913Z,23.90
2023-04-22T09:25:24.313Z,23.40
2023-04-22T09:28:00.927Z,23.50
2023-04-22T09:30:34.657Z,23.70
2023-04-22T09:33:05.577Z,23.80
2023-04-22T09:35:38.193Z,23.90
2023-04-22T09:38:09.519Z,24.10
2023-04-22T09:40:41.453Z,24.20
2023-04-22T09:43:09.534Z,24.40
2023-04-22T09:45:41.510Z,24.50
2023-04-22T09:48:17.575Z,24.70
2023-04-22T09:50:48.129Z,24.80
2023-04-22T09:53:19.018Z,24.80
2023-04-22T09:55:49.697Z,24.90
2023-04-22T09:58:19.121Z,25.00
2023-04-22T10:00:53.111Z,25.00
2023-04-22T10:03:20.425Z,25.20
2023-04-22T10:05:48.919Z,25.10
2023-04-22T10:08:17.334Z,25.10
2023-04-22T10:10:46.261Z,25.10
2023-04-22T10:13:13.442Z,25.10
2023-04-22T10:15:50.411Z,25.10
2023-04-22T10:18:25.860Z,25.10
2023-04-22T10:20:56.704Z,25.20
2023-04-22T10:23:25.334Z,25.30
2023-04-22T10:25:56.623Z,25.30
2023-04-22T10:28:28.643Z,26.80
2023-04-22T10:30:55.715Z,25.50
2023-04-22T10:33:29.008Z,25.50
2023-04-22T10:36:19.451Z,25.40
2023-04-22T10:38:55.743Z,25.30
2023-04-22T10:41:29.101Z,25.20
2023-04-22T10:43:59.651Z,25.10
2023-04-22T10:46:37.435Z,24.90
2023-04-22T10:49:20.605Z,24.70
2023-04-22T10:51:54.275Z,26.00
2023-04-22T10:54:32.530Z,24.20
2023-04-22T10:57:12.075Z,23.90
2023-04-22T10:59:54.488Z,24.00
2023-04-22T11:02:23.617Z,23.20
2023-04-22T11:04:54.786Z,22.80
2023-04-22T11:07:27.831Z,22.60
2023-04-22T11:10:15.637Z,22.20
2023-04-22T11:12:44.896Z,21.90
2023-04-22T11:15:16.775Z,21.60
2023-04-22T11:17:53.470Z,22.20
2023-04-22T11:20:21.686Z,21.00
2023-04-22T11:22:55.136Z,22.50
2023-04-22T11:25:25.031Z,20.50
2023-04-22T11:27:54.624Z,20.40
2023-04-22T11:30:26.874Z,20.20
2023-04-22T11:32:59.960Z,20.20
2023-04-22T11:35:32.113Z,21.50
2023-04-22T11:38:01.643Z,19.80
2023-04-22T11:40:43.953Z,19.80
2023-04-22T11:43:13.373Z,19.70
2023-04-22T11:45:40.682Z,19.90
2023-04-22T11:48:10.098Z,19.70
2023-04-22T11:50:40.629Z,19.70
2023-04-22T11:53:23.713Z,20.20
2023-04-22T11:55:52.024Z,19.80
2023-04-22T11:58:25.636Z,19.80
2023-04-22T12:00:55.158Z,19.80
2023-04-22T12:03:25.907Z,19.90
2023-04-22T12:06:02.190Z,20.40
2023-04-22T12:08:33.388Z,20.00
2023-04-22T12:11:03.879Z,20.10
2023-04-22T12:13:51.202Z,20.00
2023-04-22T12:16:20.413Z,20.40
2023-04-22T12:18:56.750Z,20.90
2023-04-22T12:21:28.482Z,20.70
2023-04-22T12:24:01.383Z,22.10
2023-04-22T12:26:28.366Z,20.80
2023-04-22T12:28:58.212Z,20.80
2023-04-22T12:31:26.054Z,20.80
2023-04-22T12:33:54.153Z,20.80
2023-04-22T12:36:21.824Z,20.70
2023-04-22T12:38:49.514Z,20.50
2023-04-22T12:41:17.136Z,20.50
2023-04-22T12:43:44.361Z,20.10
2023-04-22T12:46:11.525Z,19.80
2023-04-22T12:48:38.490Z,19.50
2023-04-22T12:51:06.869Z,19.20
2023-04-22T12:53:34.064Z,19.00
2023-04-22T12:56:02.274Z,18.80
2023-04-22T12:58:31.654Z,18.50
2023-04-22T13:00:58.569Z,18.30
2023-04-22T13:03:25.656Z,18.80
2023-04-22T13:05:53.071Z,18.10
2023-04-22T13:08:20.406Z,17.90
2023-04-22T13:10:48.959Z,19.10
2023-04-22T13:13:18.844Z,17.80
2023-04-22T13:15:48.050Z,18.10
2023-04-22T13:18:16.711Z,17.90
2023-04-22T13:20:43.902Z,17.90
2023-04-22T13:23:11.435Z,18.10
2023-04-22T13:25:38.600Z,18.40
2023-04-22T13:28:05.833Z,18.30
2023-04-22T13:30:33.248Z,18.30
2023-04-22T13:33:00.345Z,18.40
2023-04-22T13:35:27.544Z,18.50
2023-04-22T13:37:54.656Z,18.50
2023-04-22T13:40:21.874Z,18.00
2023-04-22T13:42:48.902Z,18.60
2023-04-22T13:45:16.759Z,18.70
2023-04-22T13:47:43.780Z,18.70
2023-04-22T13:50:11.260Z,21.40
2023-04-22T13:52:38.448Z,18.80
2023-04-22T13:55:06.855Z,18.80
2023-04-22T13:57:33.801Z,18.90
2023-04-22T14:00:00.748Z,18.90
2023-04-22T14:02:28.028Z,19.00
2023-04-22T14:04:55.225Z,19.10
2023-04-22T14:07:22.224Z,19.10
2023-04-22T14:09:49.296Z,19.10
2023-04-22T14:12:16.641Z,20.00
2023-04-22T14:14:43.814Z,19.10
2023-04-22T14:17:11.413Z,19.20
2023-04-22T14:19:39.832Z,19.00
2023-04-22T14:22:07.073Z,19.00
2023-04-22T14:24:34.489Z,18.80
2023-04-22T14:27:05.315Z,18.70
2023-04-22T14:29:32.640Z,18.60
2023-04-22T14:31:59.647Z,18.80
2023-04-22T14:34:27.377Z,18.50
2023-04-22T14:36:54.625Z,19.50
2023-04-22T14:39:21.928Z,19.50
2023-04-22T14:41:49.235Z,18.00
2023-04-22T14:44:16.602Z,18.00
2023-04-22T14:46:43.745Z,18.50
2023-04-22T14:49:10.827Z,19.10
2023-04-22T14:51:37.796Z,17.90
2023-04-22T14:54:05.495Z,18.40
2023-04-22T14:56:32.411Z,17.80
2023-04-22T14:58:59.375Z,18.00
2023-04-22T15:01:26.357Z,18.30
2023-04-22T15:03:53.569Z,16.40
2023-04-22T15:06:23.019Z,17.80
2023-04-22T15:08:54.160Z,17.80
2023-04-22T15:11:21.298Z,19.10
2023-04-22T15:13:48.531Z,17.80
2023-04-22T15:16:15.707Z,17.80
2023-04-22T15:18:43.147Z,17.70
2023-04-22T15:21:10.775Z,17.80
2023-04-22T15:23:37.894Z,18.00
2023-04-22T15:26:05.208Z,17.60
2023-04-22T15:28:33.501Z,17.60
2023-04-22T15:31:01.893Z,18.70
2023-04-22T15:33:29.098Z,17.50
2023-04-22T15:35:56.116Z,17.40
2023-04-22T15:38:24.722Z,19.40
2023-04-22T15:40:51.790Z,17.30
2023-04-22T15:43:18.677Z,18.20
2023-04-22T15:45:45.662Z,17.20
2023-04-22T15:48:12.572Z,18.20
2023-04-22T15:50:40.745Z,17.10
2023-04-22T15:53:07.731Z,17.10
2023-04-22T15:55:34.707Z,17.00
2023-04-22T15:58:02.541Z,17.00
2023-04-22T16:00:29.437Z,18.30
2023-04-22T16:02:56.784Z,17.00
2023-04-22T16:05:25.222Z,16.80
2023-04-22T16:07:56.292Z,15.60
2023-04-22T16:10:26.199Z,16.70
2023-04-22T16:12:53.282Z,16.70
2023-04-22T16:15:20.229Z,16.70
2023-04-22T16:17:47.240Z,17.80
2023-04-22T16:20:14.151Z,16.60
2023-04-22T16:22:41.130Z,16.50
2023-04-22T16:25:09.477Z,17.00
2023-04-22T16:27:37.263Z,16.20
2023-04-22T16:30:06.114Z,16.10
2023-04-22T16:32:33.192Z,15.90
2023-04-22T16:35:01.449Z,15.80
2023-04-22T16:37:29.500Z,17.10
2023-04-22T16:39:56.750Z,15.70
2023-04-22T16:42:23.774Z,16.00
2023-04-22T16:44:51.435Z,16.70
2023-04-22T16:47:19.104Z,15.50
2023-04-22T16:49:46.952Z,15.40
2023-04-22T16:52:14.023Z,15.40
2023-04-22T16:54:42.519Z,15.30
2023-04-22T16:57:11.384Z,15.20
2023-04-22T16:59:39.208Z,15.40
2023-04-22T17:02:06.368Z,16.30
2023-04-22T17:04:33.340Z,15.10
2023-04-22T17:07:00.246Z,15.80
2023-04-22T17:09:27.167Z,16.30
2023-04-22T17:11:54.164Z,15.00
2023-04-22T17:14:21.218Z,15.00
2023-04-22T17:16:48.231Z,15.00
2023-04-22T17:19:15.112Z,14.90
2023-04-22T17:21:42.674Z,14.90
2023-04-22T17:24:09.687Z,14.90
2023-04-22T17:26:37.086Z,14.70
2023-04-22T17:29:03.963Z,14.60
2023-04-22T17:31:31.060Z,14.60
2023-04-22T17:33:58.293Z,14.60
2023-04-22T17:36:25.348Z,14.40
2023-04-22T17:38:52.314Z,16.50
2023-04-22T17:41:19.311Z,14.30
2023-04-22T17:43:46.503Z,14.20
2023-04-22T17:46:13.498Z,15.70
2023-04-22T17:48:41.905Z,14.10
2023-04-22T17:51:09.927Z,15.20
2023-04-22T17:53:37.497Z,16.10
2023-04-22T17:56:04.659Z,14.70
2023-04-22T17:58:31.738Z,14.00
2023-04-22T18:00:58.695Z,15.30
2023-04-22T18:03:26.368Z,15.30
2023-04-22T18:05:53.494Z,15.30
2023-04-22T18:08:20.523Z,14.00
2023-04-22T18:10:47.529Z,13.90
2023-04-22T18:13:14.521Z,15.80
2023-04-22T18:15:42.426Z,15.80
2023-04-22T18:18:09.313Z,15.10
2023-04-22T18:20:36.380Z,13.80
2023-04-22T18:23:03.400Z,13.70
2023-04-22T18:25:30.428Z,13.70
2023-04-22T18:27:57.342Z,13.60
2023-04-22T18:30:25.095Z,14.90
2023-04-22T18:32:52.537Z,13.60
2023-04-22T18:35:20.140Z,15.20
2023-04-22T18:37:47.674Z,15.00
2023-04-22T18:40:14.772Z,13.40
2023-04-22T18:42:44.721Z,13.30
2023-04-22T18:45:12.343Z,14.30
2023-04-22T18:47:39.666Z,13.20
2023-04-22T18:50:07.853Z,13.10
2023-04-22T18:52:35.068Z,13.00
2023-04-22T18:55:02.264Z,13.00
2023-04-22T18:57:29.365Z,12.90
2023-04-22T18:59:56.449Z,14.80
2023-04-22T19:02:23.503Z,14.30
2023-04-22T19:04:51.634Z,13.10
2023-04-22T19:07:18.563Z,12.80
2023-04-22T19:09:45.693Z,12.70
2023-04-22T19:12:16.424Z,12.90
2023-04-22T19:14:43.764Z,13.70
2023-04-22T19:17:11.030Z,12.80
2023-04-22T19:19:38.106Z,13.70
2023-04-22T19:22:05.609Z,12.70
2023-04-22T19:24:35.150Z,12.60
2023-04-22T19:27:02.846Z,12.60
2023-04-22T19:29:30.064Z,12.50
2023-04-22T19:31:57.355Z,14.40
2023-04-22T19:34:24.470Z,12.40
2023-04-22T19:36:51.461Z,14.40
2023-04-22T19:39:18.412Z,13.00
2023-04-22T19:41:59.078Z,12.00
2023-04-22T19:44:26.039Z,12.00
2023-04-22T19:46:53.173Z,14.10
2023-04-22T19:49:20.712Z,12.60
2023-04-22T19:51:48.199Z,11.60
2023-04-22T19:54:16.806Z,12.80
2023-04-22T19:56:45.203Z,11.40
2023-04-22T19:59:13.463Z,13.10
2023-04-22T20:01:40.756Z,12.60
2023-04-22T20:04:08.565Z,11.20
2023-04-22T20:06:36.587Z,11.10
2023-04-22T20:09:05.714Z,11.00
2023-04-22T20:11:34.560Z,10.90
2023-04-22T20:14:03.621Z,10.90
2023-04-22T20:16:31.105Z,10.80
2023-04-22T20:18:58.141Z,10.80
2023-04-22T20:21:25.767Z,10.70
2023-04-22T20:23:57.193Z,10.70
2023-04-22T20:26:24.504Z,12.70
2023-04-22T20:28:54.771Z,10.70
2023-04-22T20:31:23.447Z,10.60
2023-04-22T20:33:51.211Z,10.60
2023-04-22T20:36:24.072Z,10.50
2023-04-22T20:38:54.885Z,10.50
2023-04-22T20:41:24.639Z,10.40
2023-04-22T20:43:52.653Z,10.80
2023-04-22T20:46:22.252Z,11.60
2023-04-22T20:48:49.986Z,11.00
2023-04-22T20:51:16.883Z,12.50
2023-04-22T20:53:45.400Z,10.20
2023-04-22T20:56:13.209Z,10.50
2023-04-22T20:58:40.198Z,11.80
2023-04-22T21:01:08.989Z,10.20
2023-04-22T21:03:39.646Z,10.10
2023-04-22T21:06:08.731Z,10.20
2023-04-22T21:08:36.799Z,10.10
2023-04-22T21:11:04.146Z,10.10
2023-04-22T21:13:31.446Z,10.00
2023-04-22T21:16:05.410Z,10.00
2023-04-22T21:18:34.686Z,10.10
2023-04-22T21:21:07.311Z,11.20
2023-04-22T21:23:35.924Z,10.10
2023-04-22T21:26:03.612Z,10.10
2023-04-22T21:28:31.412Z,10.10
2023-04-22T21:30:59.045Z,10.10
2023-04-22T21:33:26.179Z,10.10
2023-04-22T21:35:53.274Z,10.10
2023-04-22T21:38:20.720Z,10.10
2023-04-22T21:40:47.754Z,10.20
2023-04-22T21:43:14.767Z,10.20
2023-04-22T21:45:41.607Z,10.20
2023-04-22T21:48:08.725Z,10.20
2023-04-22T21:50:35.985Z,10.60
2023-04-22T21:53:03.318Z,10.20
2023-04-22T21:55:30.301Z,12.30
2023-04-22T21:57:57.364Z,10.20
2023-04-22T22:00:25.069Z,12.30
2023-04-22T22:02:53.128Z,11.00
2023-04-22T22:05:20.555Z,11.40
2023-04-22T22:07:48.828Z,10.20
2023-04-22T22:10:22.537Z,10.30
2023-04-22T22:12:50.467Z,11.20
2023-04-22T22:15:17.820Z,10.30
2023-04-22T22:17:45.746Z,12.20
2023-04-22T22:20:20.099Z,11.60
2023-04-22T22:22:48.612Z,12.00
2023-04-22T22:25:16.645Z,10.20
2023-04-22T22:27:49.396Z,10.30
2023-04-22T22:30:21.067Z,12.30
2023-04-22T22:32:48.831Z,10.20
2023-04-22T22:35:16.317Z,10.60
2023-04-22T22:37:44.607Z,10.20
2023-04-22T22:40:12.354Z,10.20
2023-04-22T22:42:39.380Z,10.20
2023-04-22T22:45:07.079Z,10.20
2023-04-22T22:47:34.407Z,10.20
2023-04-22T22:50:01.381Z,11.00
2023-04-22T22:52:28.537Z,11.80
2023-04-22T22:54:56.567Z,12.20
2023-04-22T22:57:23.578Z,11.60
2023-04-22T22:59:50.624Z,11.70
2023-04-22T23:02:17.982Z,12.20
2023-04-22T23:04:45.564Z,10.30
2023-04-22T23:07:14.597Z,11.60
2023-04-22T23:09:41.611Z,11.90
2023-04-22T23:12:08.533Z,10.30
2023-04-22T23:14:36.517Z,10.70
2023-04-22T23:17:03.718Z,11.30
2023-04-22T23:19:32.614Z,12.70
2023-04-22T23:21:59.839Z,12.00
2023-04-22T23:24:27.273Z,10.30
2023-04-22T23:26:54.661Z,10.30
2023-04-22T23:29:22.159Z,10.30
2023-04-22T23:31:51.953Z,10.30
2023-04-22T23:34:25.873Z,10.30
2023-04-22T23:36:53.618Z,10.80
2023-04-22T23:39:20.608Z,10.30
2023-04-22T23:41:47.604Z,10.20
2023-04-22T23:44:14.498Z,11.70
2023-04-22T23:46:41.732Z,10.20
2023-04-22T23:49:08.698Z,10.10
2023-04-22T23:51:35.782Z,10.10
2023-04-22T23:54:02.624Z,10.10
2023-04-22T23:56:29.896Z,10.00
2023-04-22T23:58:57.359Z,10.00
